KRYM

Ray S Miller AAF Airport

Camp Ripley, Minnesota, USA
METAR KRYM 151856Z AUTO 31005KT 10SM CLR M11/M17 A3005 RMK AO2 SLP208 T11121170 $
Observed Flight Rules
Feb-15 @ 18:56 UTC (15 minutes ago) Visual Flight Rules
Wind Visibility Clouds
310° at 5 knots 10 miles
  • Clear skies
Temperatures Readings
Current -11°C / 12°F
Dewpoint -17°C / 1°F
Humidity 62%
Altimeter 30.05" Hg
Pressure 1020.8 hPa
Elevation 351
METAR KRYM 151856Z AUTO 31005KT 10SM CLR M11/M17 A3005 RMK AO2 SLP208 T11121170 $
Observed Flight Rules
Feb-15 @ 18:56 UTC
(15 minutes ago)
VFR
Wind Visibility
310° at 5 knots 10 miles
Clouds
  • Clear skies
Temperature Dewpoint
-11°C / 12°F -17°C / 1°F
Humidity Altimeter Pressure
62% 30.05" Hg 1020.8 hPa